sensor_id;sensor_type;location;lat;lon;timestamp;P1;durP1;ratioP1;P2;durP2;ratioP2
3881;SDS011;1956;53.482;10.238;2023-09-08T00:04:41;6.80;;;4.53;;
3881;SDS011;1956;53.482;10.238;2023-09-08T00:09:41;5.53;;;4.27;;
3881;SDS011;1956;53.482;10.238;2023-09-08T00:14:42;4.97;;;4.03;;
3881;SDS011;1956;53.482;10.238;2023-09-08T00:19:42;5.00;;;4.00;;
3881;SDS011;1956;53.482;10.238;2023-09-08T00:24:42;6.87;;;4.70;;
3881;SDS011;1956;53.482;10.238;2023-09-08T00:29:43;6.10;;;5.00;;
3881;SDS011;1956;53.482;10.238;2023-09-08T00:34:43;6.57;;;5.10;;
3881;SDS011;1956;53.482;10.238;2023-09-08T00:39:43;5.57;;;4.73;;
3881;SDS011;1956;53.482;10.238;2023-09-08T00:44:43;7.27;;;5.33;;
3881;SDS011;1956;53.482;10.238;2023-09-08T00:49:44;6.63;;;5.30;;
3881;SDS011;1956;53.482;10.238;2023-09-08T00:54:44;4.83;;;4.33;;
3881;SDS011;1956;53.482;10.238;2023-09-08T00:59:44;10.00;;;5.53;;
3881;SDS011;1956;53.482;10.238;2023-09-08T01:04:45;11.17;;;6.30;;
3881;SDS011;1956;53.482;10.238;2023-09-08T01:09:45;5.63;;;5.07;;
3881;SDS011;1956;53.482;10.238;2023-09-08T01:14:46;7.83;;;5.73;;
3881;SDS011;1956;53.482;10.238;2023-09-08T01:19:47;7.00;;;4.93;;
3881;SDS011;1956;53.482;10.238;2023-09-08T01:24:59;8.73;;;6.00;;
3881;SDS011;1956;53.482;10.238;2023-09-08T01:30:03;5.10;;;4.60;;
3881;SDS011;1956;53.482;10.238;2023-09-08T01:35:04;6.60;;;4.80;;
3881;SDS011;1956;53.482;10.238;2023-09-08T01:40:05;5.43;;;4.93;;
3881;SDS011;1956;53.482;10.238;2023-09-08T01:45:05;6.30;;;5.17;;
3881;SDS011;1956;53.482;10.238;2023-09-08T01:50:06;7.87;;;5.50;;
3881;SDS011;1956;53.482;10.238;2023-09-08T01:55:07;6.30;;;5.20;;
3881;SDS011;1956;53.482;10.238;2023-09-08T02:00:08;7.70;;;5.43;;
3881;SDS011;1956;53.482;10.238;2023-09-08T02:05:08;6.30;;;5.23;;
3881;SDS011;1956;53.482;10.238;2023-09-08T02:10:09;7.57;;;4.93;;
3881;SDS011;1956;53.482;10.238;2023-09-08T02:15:10;6.50;;;4.90;;
3881;SDS011;1956;53.482;10.238;2023-09-08T02:20:11;7.50;;;4.80;;
3881;SDS011;1956;53.482;10.238;2023-09-08T02:25:11;9.02;;;6.20;;
3881;SDS011;1956;53.482;10.238;2023-09-08T02:30:11;8.20;;;6.40;;
3881;SDS011;1956;53.482;10.238;2023-09-08T02:35:12;9.20;;;6.07;;
3881;SDS011;1956;53.482;10.238;2023-09-08T02:40:12;4.90;;;4.40;;
3881;SDS011;1956;53.482;10.238;2023-09-08T02:45:12;8.30;;;5.57;;
3881;SDS011;1956;53.482;10.238;2023-09-08T02:50:13;5.70;;;5.10;;
3881;SDS011;1956;53.482;10.238;2023-09-08T02:55:13;6.60;;;5.90;;
3881;SDS011;1956;53.482;10.238;2023-09-08T03:00:13;7.40;;;5.43;;
3881;SDS011;1956;53.482;10.238;2023-09-08T03:05:14;11.93;;;5.77;;
3881;SDS011;1956;53.482;10.238;2023-09-08T03:10:15;6.90;;;5.67;;
3881;SDS011;1956;53.482;10.238;2023-09-08T03:15:16;7.07;;;5.47;;
3881;SDS011;1956;53.482;10.238;2023-09-08T03:20:16;12.73;;;6.60;;
3881;SDS011;1956;53.482;10.238;2023-09-08T03:25:16;7.73;;;5.43;;
3881;SDS011;1956;53.482;10.238;2023-09-08T03:30:16;8.05;;;5.80;;
3881;SDS011;1956;53.482;10.238;2023-09-08T03:35:17;9.07;;;6.03;;
3881;SDS011;1956;53.482;10.238;2023-09-08T03:40:17;7.80;;;5.63;;
3881;SDS011;1956;53.482;10.238;2023-09-08T03:45:17;8.60;;;6.07;;
3881;SDS011;1956;53.482;10.238;2023-09-08T03:50:17;7.38;;;5.90;;
3881;SDS011;1956;53.482;10.238;2023-09-08T03:55:18;9.03;;;6.37;;
3881;SDS011;1956;53.482;10.238;2023-09-08T04:00:18;6.53;;;5.72;;
3881;SDS011;1956;53.482;10.238;2023-09-08T04:05:21;7.53;;;6.17;;
3881;SDS011;1956;53.482;10.238;2023-09-08T04:10:21;8.63;;;7.37;;
3881;SDS011;1956;53.482;10.238;2023-09-08T04:15:22;8.33;;;6.30;;
3881;SDS011;1956;53.482;10.238;2023-09-08T04:20:22;6.90;;;5.67;;
3881;SDS011;1956;53.482;10.238;2023-09-08T04:25:23;9.88;;;6.35;;
3881;SDS011;1956;53.482;10.238;2023-09-08T04:30:25;10.50;;;6.57;;
3881;SDS011;1956;53.482;10.238;2023-09-08T04:35:25;8.15;;;6.30;;
3881;SDS011;1956;53.482;10.238;2023-09-08T04:40:25;8.07;;;6.60;;
3881;SDS011;1956;53.482;10.238;2023-09-08T04:45:25;9.80;;;6.70;;
3881;SDS011;1956;53.482;10.238;2023-09-08T04:50:26;9.50;;;7.20;;
3881;SDS011;1956;53.482;10.238;2023-09-08T04:55:26;6.20;;;5.60;;
3881;SDS011;1956;53.482;10.238;2023-09-08T05:00:26;8.87;;;6.80;;
3881;SDS011;1956;53.482;10.238;2023-09-08T05:05:26;9.13;;;6.40;;
3881;SDS011;1956;53.482;10.238;2023-09-08T05:10:27;8.30;;;6.60;;
3881;SDS011;1956;53.482;10.238;2023-09-08T05:15:27;8.63;;;6.77;;
3881;SDS011;1956;53.482;10.238;2023-09-08T05:20:27;7.80;;;6.57;;
3881;SDS011;1956;53.482;10.238;2023-09-08T05:25:27;8.57;;;7.13;;
3881;SDS011;1956;53.482;10.238;2023-09-08T05:30:28;11.20;;;7.10;;
3881;SDS011;1956;53.482;10.238;2023-09-08T05:35:28;9.60;;;6.37;;
3881;SDS011;1956;53.482;10.238;2023-09-08T05:40:28;9.53;;;7.10;;
3881;SDS011;1956;53.482;10.238;2023-09-08T05:45:28;8.87;;;6.97;;
3881;SDS011;1956;53.482;10.238;2023-09-08T05:56:08;10.93;;;7.30;;
3881;SDS011;1956;53.482;10.238;2023-09-08T06:01:08;9.87;;;7.37;;
3881;SDS011;1956;53.482;10.238;2023-09-08T06:06:09;11.50;;;8.03;;
3881;SDS011;1956;53.482;10.238;2023-09-08T06:11:09;9.13;;;6.40;;
3881;SDS011;1956;53.482;10.238;2023-09-08T06:16:09;7.80;;;7.00;;
3881;SDS011;1956;53.482;10.238;2023-09-08T06:21:09;9.33;;;7.43;;
3881;SDS011;1956;53.482;10.238;2023-09-08T06:26:10;9.37;;;7.20;;
3881;SDS011;1956;53.482;10.238;2023-09-08T06:31:10;10.37;;;8.00;;
3881;SDS011;1956;53.482;10.238;2023-09-08T06:36:10;7.40;;;6.60;;
3881;SDS011;1956;53.482;10.238;2023-09-08T06:41:11;10.40;;;7.83;;
3881;SDS011;1956;53.482;10.238;2023-09-08T06:46:11;10.93;;;8.00;;
3881;SDS011;1956;53.482;10.238;2023-09-08T06:51:11;8.73;;;6.80;;
3881;SDS011;1956;53.482;10.238;2023-09-08T06:56:12;10.43;;;6.77;;
3881;SDS011;1956;53.482;10.238;2023-09-08T07:01:12;8.60;;;6.50;;
3881;SDS011;1956;53.482;10.238;2023-09-08T07:06:12;10.17;;;6.90;;
3881;SDS011;1956;53.482;10.238;2023-09-08T07:11:12;8.40;;;7.00;;
3881;SDS011;1956;53.482;10.238;2023-09-08T07:16:13;8.17;;;6.87;;
3881;SDS011;1956;53.482;10.238;2023-09-08T07:21:13;9.68;;;6.90;;
3881;SDS011;1956;53.482;10.238;2023-09-08T07:26:13;10.63;;;7.17;;
3881;SDS011;1956;53.482;10.238;2023-09-08T07:31:14;8.63;;;6.90;;
3881;SDS011;1956;53.482;10.238;2023-09-08T07:36:14;8.40;;;6.10;;
3881;SDS011;1956;53.482;10.238;2023-09-08T07:41:15;7.40;;;6.37;;
3881;SDS011;1956;53.482;10.238;2023-09-08T07:46:15;9.03;;;6.60;;
3881;SDS011;1956;53.482;10.238;2023-09-08T07:51:15;6.97;;;6.37;;
3881;SDS011;1956;53.482;10.238;2023-09-08T07:56:16;7.77;;;6.10;;
3881;SDS011;1956;53.482;10.238;2023-09-08T08:01:16;7.93;;;6.27;;
3881;SDS011;1956;53.482;10.238;2023-09-08T08:06:16;6.73;;;6.07;;
3881;SDS011;1956;53.482;10.238;2023-09-08T08:11:16;12.50;;;6.80;;
3881;SDS011;1956;53.482;10.238;2023-09-08T08:16:20;6.90;;;5.37;;
3881;SDS011;1956;53.482;10.238;2023-09-08T08:21:21;8.53;;;5.70;;
3881;SDS011;1956;53.482;10.238;2023-09-08T08:26:22;7.00;;;5.03;;
3881;SDS011;1956;53.482;10.238;2023-09-08T08:31:27;9.70;;;5.87;;
3881;SDS011;1956;53.482;10.238;2023-09-08T08:36:28;6.77;;;4.83;;
3881;SDS011;1956;53.482;10.238;2023-09-08T08:41:28;6.07;;;5.40;;
3881;SDS011;1956;53.482;10.238;2023-09-08T08:46:29;6.40;;;5.20;;
3881;SDS011;1956;53.482;10.238;2023-09-08T08:51:30;8.83;;;5.67;;
3881;SDS011;1956;53.482;10.238;2023-09-08T08:56:30;6.37;;;5.43;;
3881;SDS011;1956;53.482;10.238;2023-09-08T09:01:31;5.50;;;5.00;;
3881;SDS011;1956;53.482;10.238;2023-09-08T09:06:33;6.53;;;4.90;;
3881;SDS011;1956;53.482;10.238;2023-09-08T09:11:33;6.07;;;5.40;;
3881;SDS011;1956;53.482;10.238;2023-09-08T09:16:43;7.73;;;5.23;;
3881;SDS011;1956;53.482;10.238;2023-09-08T09:21:44;6.60;;;4.53;;
3881;SDS011;1956;53.482;10.238;2023-09-08T09:26:46;5.50;;;4.80;;
3881;SDS011;1956;53.482;10.238;2023-09-08T09:31:56;8.97;;;5.60;;
3881;SDS011;1956;53.482;10.238;2023-09-08T09:36:57;5.97;;;4.60;;
3881;SDS011;1956;53.482;10.238;2023-09-08T09:41:57;5.30;;;4.80;;
3881;SDS011;1956;53.482;10.238;2023-09-08T09:46:57;6.80;;;5.70;;
3881;SDS011;1956;53.482;10.238;2023-09-08T09:52:00;8.07;;;5.10;;
3881;SDS011;1956;53.482;10.238;2023-09-08T09:57:00;9.43;;;4.80;;
3881;SDS011;1956;53.482;10.238;2023-09-08T10:02:01;6.13;;;5.20;;
3881;SDS011;1956;53.482;10.238;2023-09-08T10:07:03;9.57;;;5.80;;
3881;SDS011;1956;53.482;10.238;2023-09-08T10:12:04;5.80;;;5.20;;
3881;SDS011;1956;53.482;10.238;2023-09-08T10:17:04;8.73;;;5.03;;
3881;SDS011;1956;53.482;10.238;2023-09-08T10:22:05;5.00;;;4.53;;
3881;SDS011;1956;53.482;10.238;2023-09-08T10:27:11;5.60;;;5.10;;
3881;SDS011;1956;53.482;10.238;2023-09-08T10:32:11;7.67;;;5.13;;
3881;SDS011;1956;53.482;10.238;2023-09-08T10:37:22;6.67;;;5.13;;
3881;SDS011;1956;53.482;10.238;2023-09-08T10:42:24;6.07;;;5.10;;
3881;SDS011;1956;53.482;10.238;2023-09-08T10:47:26;8.10;;;5.10;;
3881;SDS011;1956;53.482;10.238;2023-09-08T10:52:30;7.00;;;4.80;;
3881;SDS011;1956;53.482;10.238;2023-09-08T10:57:32;4.93;;;4.50;;
3881;SDS011;1956;53.482;10.238;2023-09-08T11:02:48;6.43;;;4.73;;
3881;SDS011;1956;53.482;10.238;2023-09-08T11:07:48;5.63;;;4.90;;
3881;SDS011;1956;53.482;10.238;2023-09-08T11:12:55;5.20;;;4.50;;
3881;SDS011;1956;53.482;10.238;2023-09-08T11:17:55;5.33;;;4.30;;
3881;SDS011;1956;53.482;10.238;2023-09-08T11:22:55;5.13;;;4.63;;
3881;SDS011;1956;53.482;10.238;2023-09-08T11:27:56;6.77;;;4.93;;
3881;SDS011;1956;53.482;10.238;2023-09-08T11:32:57;5.47;;;4.93;;
3881;SDS011;1956;53.482;10.238;2023-09-08T11:37:59;5.03;;;4.20;;
3881;SDS011;1956;53.482;10.238;2023-09-08T11:42:59;5.20;;;4.70;;
3881;SDS011;1956;53.482;10.238;2023-09-08T11:47:59;4.78;;;4.18;;
3881;SDS011;1956;53.482;10.238;2023-09-08T11:53:00;4.67;;;4.23;;
3881;SDS011;1956;53.482;10.238;2023-09-08T11:58:02;5.03;;;4.53;;
3881;SDS011;1956;53.482;10.238;2023-09-08T12:03:09;5.30;;;4.77;;
3881;SDS011;1956;53.482;10.238;2023-09-08T12:08:10;4.97;;;3.90;;
3881;SDS011;1956;53.482;10.238;2023-09-08T12:13:10;4.23;;;3.83;;
3881;SDS011;1956;53.482;10.238;2023-09-08T12:18:12;5.30;;;4.23;;
3881;SDS011;1956;53.482;10.238;2023-09-08T12:23:21;5.73;;;3.97;;
3881;SDS011;1956;53.482;10.238;2023-09-08T12:28:22;4.60;;;4.20;;
3881;SDS011;1956;53.482;10.238;2023-09-08T12:33:22;4.87;;;4.37;;
3881;SDS011;1956;53.482;10.238;2023-09-08T12:38:22;4.80;;;3.67;;
3881;SDS011;1956;53.482;10.238;2023-09-08T12:43:23;3.60;;;3.27;;
3881;SDS011;1956;53.482;10.238;2023-09-08T12:48:23;3.30;;;2.93;;
3881;SDS011;1956;53.482;10.238;2023-09-08T12:53:24;2.83;;;2.57;;
3881;SDS011;1956;53.482;10.238;2023-09-08T12:58:24;3.00;;;2.80;;
3881;SDS011;1956;53.482;10.238;2023-09-08T13:03:24;3.63;;;2.90;;
3881;SDS011;1956;53.482;10.238;2023-09-08T13:08:25;3.63;;;3.33;;
3881;SDS011;1956;53.482;10.238;2023-09-08T13:13:25;3.20;;;2.93;;
3881;SDS011;1956;53.482;10.238;2023-09-08T13:18:26;2.87;;;2.70;;
3881;SDS011;1956;53.482;10.238;2023-09-08T13:23:27;3.00;;;2.80;;
3881;SDS011;1956;53.482;10.238;2023-09-08T13:28:27;2.90;;;2.70;;
3881;SDS011;1956;53.482;10.238;2023-09-08T13:33:27;3.07;;;2.70;;
3881;SDS011;1956;53.482;10.238;2023-09-08T13:38:27;3.20;;;2.90;;
3881;SDS011;1956;53.482;10.238;2023-09-08T13:43:28;2.93;;;2.60;;
3881;SDS011;1956;53.482;10.238;2023-09-08T13:48:28;4.50;;;2.93;;
3881;SDS011;1956;53.482;10.238;2023-09-08T13:53:28;5.80;;;3.50;;
3881;SDS011;1956;53.482;10.238;2023-09-08T13:58:30;3.60;;;3.30;;
3881;SDS011;1956;53.482;10.238;2023-09-08T14:03:30;2.80;;;2.60;;
3881;SDS011;1956;53.482;10.238;2023-09-08T14:08:31;3.53;;;3.00;;
3881;SDS011;1956;53.482;10.238;2023-09-08T14:13:31;6.33;;;3.13;;
3881;SDS011;1956;53.482;10.238;2023-09-08T14:18:32;4.90;;;3.37;;
3881;SDS011;1956;53.482;10.238;2023-09-08T14:23:33;3.23;;;3.00;;
3881;SDS011;1956;53.482;10.238;2023-09-08T14:28:38;3.50;;;2.67;;
3881;SDS011;1956;53.482;10.238;2023-09-08T14:33:39;4.13;;;3.07;;
3881;SDS011;1956;53.482;10.238;2023-09-08T14:38:39;5.40;;;4.93;;
3881;SDS011;1956;53.482;10.238;2023-09-08T14:43:39;3.33;;;3.07;;
3881;SDS011;1956;53.482;10.238;2023-09-08T14:48:39;3.53;;;3.00;;
3881;SDS011;1956;53.482;10.238;2023-09-08T14:53:40;3.77;;;2.93;;
3881;SDS011;1956;53.482;10.238;2023-09-08T14:58:40;3.07;;;2.87;;
3881;SDS011;1956;53.482;10.238;2023-09-08T15:03:40;3.83;;;2.77;;
3881;SDS011;1956;53.482;10.238;2023-09-08T15:08:41;3.20;;;3.00;;
3881;SDS011;1956;53.482;10.238;2023-09-08T15:13:42;3.53;;;3.27;;
3881;SDS011;1956;53.482;10.238;2023-09-08T15:18:43;2.43;;;2.30;;
3881;SDS011;1956;53.482;10.238;2023-09-08T15:23:43;2.70;;;2.50;;
3881;SDS011;1956;53.482;10.238;2023-09-08T15:28:44;3.17;;;2.87;;
3881;SDS011;1956;53.482;10.238;2023-09-08T15:33:44;2.30;;;2.20;;
3881;SDS011;1956;53.482;10.238;2023-09-08T15:38:44;2.70;;;2.50;;
3881;SDS011;1956;53.482;10.238;2023-09-08T15:43:46;3.03;;;2.73;;
3881;SDS011;1956;53.482;10.238;2023-09-08T15:48:49;3.70;;;2.80;;
3881;SDS011;1956;53.482;10.238;2023-09-08T15:53:50;3.00;;;2.80;;
3881;SDS011;1956;53.482;10.238;2023-09-08T15:58:50;4.30;;;2.93;;
3881;SDS011;1956;53.482;10.238;2023-09-08T16:03:50;6.93;;;2.97;;
3881;SDS011;1956;53.482;10.238;2023-09-08T16:08:51;2.90;;;2.70;;
3881;SDS011;1956;53.482;10.238;2023-09-08T16:13:51;2.77;;;2.57;;
3881;SDS011;1956;53.482;10.238;2023-09-08T16:18:51;3.30;;;2.80;;
3881;SDS011;1956;53.482;10.238;2023-09-08T16:23:52;3.30;;;3.00;;
3881;SDS011;1956;53.482;10.238;2023-09-08T16:28:53;3.40;;;3.10;;
3881;SDS011;1956;53.482;10.238;2023-09-08T16:33:53;5.07;;;3.60;;
3881;SDS011;1956;53.482;10.238;2023-09-08T16:38:53;5.33;;;3.23;;
3881;SDS011;1956;53.482;10.238;2023-09-08T16:43:53;3.83;;;3.47;;
3881;SDS011;1956;53.482;10.238;2023-09-08T16:48:53;4.03;;;3.70;;
3881;SDS011;1956;53.482;10.238;2023-09-08T16:53:54;3.37;;;3.07;;
3881;SDS011;1956;53.482;10.238;2023-09-08T16:58:54;3.70;;;3.40;;
3881;SDS011;1956;53.482;10.238;2023-09-08T17:03:54;3.97;;;3.60;;
3881;SDS011;1956;53.482;10.238;2023-09-08T17:08:54;3.37;;;3.07;;
3881;SDS011;1956;53.482;10.238;2023-09-08T17:13:55;5.40;;;3.40;;
3881;SDS011;1956;53.482;10.238;2023-09-08T17:18:55;5.90;;;3.13;;
3881;SDS011;1956;53.482;10.238;2023-09-08T17:23:56;3.97;;;3.57;;
3881;SDS011;1956;53.482;10.238;2023-09-08T17:28:56;5.33;;;4.20;;
3881;SDS011;1956;53.482;10.238;2023-09-08T17:33:56;7.93;;;4.43;;
3881;SDS011;1956;53.482;10.238;2023-09-08T17:38:56;4.37;;;3.37;;
3881;SDS011;1956;53.482;10.238;2023-09-08T17:43:57;4.70;;;4.07;;
3881;SDS011;1956;53.482;10.238;2023-09-08T17:48:57;4.73;;;3.93;;
3881;SDS011;1956;53.482;10.238;2023-09-08T17:53:57;4.87;;;4.07;;
3881;SDS011;1956;53.482;10.238;2023-09-08T17:58:57;5.30;;;4.37;;
3881;SDS011;1956;53.482;10.238;2023-09-08T18:03:58;6.90;;;3.83;;
3881;SDS011;1956;53.482;10.238;2023-09-08T18:08:59;7.60;;;4.40;;
3881;SDS011;1956;53.482;10.238;2023-09-08T18:13:59;4.97;;;3.70;;
3881;SDS011;1956;53.482;10.238;2023-09-08T18:19:00;7.10;;;4.77;;
3881;SDS011;1956;53.482;10.238;2023-09-08T18:24:00;4.80;;;4.20;;
3881;SDS011;1956;53.482;10.238;2023-09-08T18:29:01;5.20;;;3.83;;
3881;SDS011;1956;53.482;10.238;2023-09-08T18:34:01;4.77;;;4.33;;
3881;SDS011;1956;53.482;10.238;2023-09-08T18:39:01;4.93;;;4.50;;
3881;SDS011;1956;53.482;10.238;2023-09-08T18:44:04;5.93;;;4.97;;
3881;SDS011;1956;53.482;10.238;2023-09-08T18:49:04;6.37;;;5.20;;
3881;SDS011;1956;53.482;10.238;2023-09-08T18:54:05;6.97;;;5.80;;
3881;SDS011;1956;53.482;10.238;2023-09-08T18:59:05;7.70;;;5.67;;
3881;SDS011;1956;53.482;10.238;2023-09-08T19:04:05;8.50;;;6.50;;
3881;SDS011;1956;53.482;10.238;2023-09-08T19:09:06;8.27;;;6.70;;
3881;SDS011;1956;53.482;10.238;2023-09-08T19:14:07;7.90;;;6.00;;
3881;SDS011;1956;53.482;10.238;2023-09-08T19:19:07;7.93;;;6.30;;
3881;SDS011;1956;53.482;10.238;2023-09-08T19:24:07;5.60;;;4.93;;
3881;SDS011;1956;53.482;10.238;2023-09-08T19:29:08;5.93;;;4.80;;
3881;SDS011;1956;53.482;10.238;2023-09-08T19:34:08;6.07;;;4.50;;
3881;SDS011;1956;53.482;10.238;2023-09-08T19:39:08;7.07;;;4.70;;
3881;SDS011;1956;53.482;10.238;2023-09-08T19:44:09;7.20;;;5.20;;
3881;SDS011;1956;53.482;10.238;2023-09-08T19:49:09;5.60;;;4.77;;
3881;SDS011;1956;53.482;10.238;2023-09-08T19:54:09;6.83;;;4.77;;
3881;SDS011;1956;53.482;10.238;2023-09-08T19:59:09;9.07;;;6.47;;
3881;SDS011;1956;53.482;10.238;2023-09-08T20:04:10;10.90;;;5.80;;
3881;SDS011;1956;53.482;10.238;2023-09-08T20:09:11;9.43;;;6.00;;
3881;SDS011;1956;53.482;10.238;2023-09-08T20:14:14;5.20;;;4.70;;
3881;SDS011;1956;53.482;10.238;2023-09-08T20:19:14;7.70;;;5.23;;
3881;SDS011;1956;53.482;10.238;2023-09-08T20:24:15;6.40;;;5.53;;
3881;SDS011;1956;53.482;10.238;2023-09-08T20:29:15;7.53;;;5.90;;
3881;SDS011;1956;53.482;10.238;2023-09-08T20:34:15;8.37;;;5.27;;
3881;SDS011;1956;53.482;10.238;2023-09-08T20:39:16;6.50;;;5.20;;
3881;SDS011;1956;53.482;10.238;2023-09-08T20:44:16;8.43;;;5.40;;
3881;SDS011;1956;53.482;10.238;2023-09-08T20:49:17;5.67;;;4.93;;
3881;SDS011;1956;53.482;10.238;2023-09-08T20:54:17;7.30;;;5.03;;
3881;SDS011;1956;53.482;10.238;2023-09-08T20:59:17;7.93;;;5.20;;
3881;SDS011;1956;53.482;10.238;2023-09-08T21:04:17;6.60;;;5.00;;
3881;SDS011;1956;53.482;10.238;2023-09-08T21:09:17;5.57;;;4.93;;
3881;SDS011;1956;53.482;10.238;2023-09-08T21:14:19;5.87;;;4.73;;
3881;SDS011;1956;53.482;10.238;2023-09-08T21:19:19;5.77;;;4.43;;
3881;SDS011;1956;53.482;10.238;2023-09-08T21:24:19;7.77;;;4.90;;
3881;SDS011;1956;53.482;10.238;2023-09-08T21:29:19;6.23;;;4.77;;
3881;SDS011;1956;53.482;10.238;2023-09-08T21:34:20;5.40;;;4.83;;
3881;SDS011;1956;53.482;10.238;2023-09-08T21:39:21;7.43;;;4.90;;
3881;SDS011;1956;53.482;10.238;2023-09-08T21:44:21;6.65;;;4.65;;
3881;SDS011;1956;53.482;10.238;2023-09-08T21:49:21;7.60;;;5.18;;
3881;SDS011;1956;53.482;10.238;2023-09-08T21:54:21;6.20;;;5.43;;
3881;SDS011;1956;53.482;10.238;2023-09-08T21:59:22;7.60;;;5.13;;
3881;SDS011;1956;53.482;10.238;2023-09-08T22:04:22;6.23;;;4.60;;
3881;SDS011;1956;53.482;10.238;2023-09-08T22:09:22;6.45;;;5.63;;
3881;SDS011;1956;53.482;10.238;2023-09-08T22:14:22;15.67;;;5.57;;
3881;SDS011;1956;53.482;10.238;2023-09-08T22:19:23;7.37;;;5.03;;
3881;SDS011;1956;53.482;10.238;2023-09-08T22:24:23;7.60;;;5.47;;
3881;SDS011;1956;53.482;10.238;2023-09-08T22:29:23;7.50;;;5.10;;
3881;SDS011;1956;53.482;10.238;2023-09-08T22:34:26;6.07;;;4.50;;
3881;SDS011;1956;53.482;10.238;2023-09-08T22:39:27;8.53;;;5.57;;
3881;SDS011;1956;53.482;10.238;2023-09-08T22:44:27;7.63;;;5.40;;
3881;SDS011;1956;53.482;10.238;2023-09-08T22:49:27;6.93;;;5.10;;
3881;SDS011;1956;53.482;10.238;2023-09-08T22:54:28;5.70;;;4.80;;
3881;SDS011;1956;53.482;10.238;2023-09-08T22:59:28;6.70;;;5.97;;
3881;SDS011;1956;53.482;10.238;2023-09-08T23:04:29;8.10;;;6.00;;
3881;SDS011;1956;53.482;10.238;2023-09-08T23:09:29;7.23;;;5.60;;
3881;SDS011;1956;53.482;10.238;2023-09-08T23:14:29;5.37;;;4.87;;
3881;SDS011;1956;53.482;10.238;2023-09-08T23:19:29;8.57;;;5.90;;
3881;SDS011;1956;53.482;10.238;2023-09-08T23:24:30;6.93;;;4.73;;
3881;SDS011;1956;53.482;10.238;2023-09-08T23:29:30;7.30;;;5.40;;
3881;SDS011;1956;53.482;10.238;2023-09-08T23:34:31;7.07;;;5.20;;
3881;SDS011;1956;53.482;10.238;2023-09-08T23:39:33;7.20;;;5.33;;
3881;SDS011;1956;53.482;10.238;2023-09-08T23:44:33;8.00;;;5.43;;
3881;SDS011;1956;53.482;10.238;2023-09-08T23:49:33;6.57;;;5.85;;
3881;SDS011;1956;53.482;10.238;2023-09-08T23:54:34;6.37;;;5.73;;
3881;SDS011;1956;53.482;10.238;2023-09-08T23:59:34;6.57;;;5.67;;
